createdAt,value
2017-08-17T00:00:20.741Z,19.10
2017-08-17T00:02:49.097Z,19.10
2017-08-17T00:05:17.473Z,19.00
2017-08-17T00:07:45.973Z,19.00
2017-08-17T00:10:14.341Z,19.00
2017-08-17T00:12:42.693Z,19.00
2017-08-17T00:15:11.253Z,19.00
2017-08-17T00:17:39.603Z,19.00
2017-08-17T00:20:07.986Z,19.00
2017-08-17T00:22:37.097Z,18.90
2017-08-17T00:25:05.454Z,18.90
2017-08-17T00:27:33.833Z,18.90
2017-08-17T00:30:02.192Z,18.90
2017-08-17T00:32:30.550Z,18.90
2017-08-17T00:34:59.130Z,18.90
2017-08-17T00:37:28.479Z,18.90
2017-08-17T00:39:56.926Z,18.90
2017-08-17T00:42:25.308Z,18.90
2017-08-17T00:44:53.670Z,18.90
2017-08-17T00:47:22.044Z,18.90
2017-08-17T00:49:50.412Z,18.80
2017-08-17T00:52:18.774Z,18.80
2017-08-17T00:54:47.416Z,18.80
2017-08-17T00:57:15.780Z,18.80
2017-08-17T00:59:44.166Z,18.80
2017-08-17T01:02:12.568Z,18.70
2017-08-17T01:04:40.935Z,18.70
2017-08-17T01:07:09.011Z,18.70
2017-08-17T01:09:37.387Z,18.70
2017-08-17T01:12:05.747Z,18.70
2017-08-17T01:14:33.757Z,18.70
2017-08-17T01:17:02.546Z,18.70
2017-08-17T01:19:30.924Z,18.60
2017-08-17T01:22:28.742Z,18.60
2017-08-17T01:31:38.947Z,18.60
2017-08-17T01:34:06.958Z,18.50
2017-08-17T01:36:35.396Z,18.50
2017-08-17T01:39:03.228Z,18.50
2017-08-17T01:41:30.890Z,18.50
2017-08-17T01:43:58.910Z,18.50
2017-08-17T01:46:27.694Z,18.50
2017-08-17T01:48:55.401Z,18.50
2017-08-17T01:51:23.418Z,18.50
2017-08-17T01:53:51.082Z,18.50
2017-08-17T01:56:19.739Z,18.40
2017-08-17T01:58:47.415Z,18.40
2017-08-17T02:01:15.078Z,18.50
2017-08-17T02:03:43.434Z,18.50
2017-08-17T02:06:11.881Z,18.50
2017-08-17T02:08:40.230Z,18.40
2017-08-17T02:11:08.587Z,18.40
2017-08-17T02:13:38.239Z,18.40
2017-08-17T02:16:06.717Z,18.40
2017-08-17T02:18:35.087Z,18.30
2017-08-17T02:21:03.442Z,18.30
2017-08-17T02:23:31.846Z,18.30
2017-08-17T02:26:00.217Z,18.20
2017-08-17T02:28:28.595Z,18.20
2017-08-17T02:30:56.951Z,18.20
2017-08-17T02:33:25.412Z,18.20
2017-08-17T02:35:54.549Z,18.10
2017-08-17T02:38:22.919Z,18.10
2017-08-17T02:40:51.396Z,18.10
2017-08-17T02:43:19.977Z,18.00
2017-08-17T02:45:48.351Z,18.00
2017-08-17T02:48:16.729Z,18.00
2017-08-17T02:50:45.153Z,18.10
2017-08-17T02:53:13.737Z,18.10
2017-08-17T02:55:42.096Z,18.10
2017-08-17T02:58:10.539Z,18.10
2017-08-17T03:00:38.890Z,18.00
2017-08-17T03:03:07.291Z,18.10
2017-08-17T03:05:35.638Z,18.10
2017-08-17T03:08:03.997Z,18.00
2017-08-17T03:10:33.127Z,18.00
2017-08-17T03:13:01.489Z,18.00
2017-08-17T03:15:29.883Z,18.00
2017-08-17T03:17:58.259Z,17.90
2017-08-17T03:20:26.614Z,17.80
2017-08-17T03:22:54.975Z,17.80
2017-08-17T03:25:23.388Z,17.80
2017-08-17T03:27:51.730Z,17.80
2017-08-17T03:30:20.095Z,17.80
2017-08-17T03:32:48.455Z,17.80
2017-08-17T03:35:17.072Z,17.80
2017-08-17T03:37:46.381Z,17.70
2017-08-17T03:40:14.869Z,17.70
2017-08-17T03:42:43.234Z,17.70
2017-08-17T03:45:11.713Z,17.70
2017-08-17T03:47:40.083Z,17.70
2017-08-17T03:50:08.442Z,17.60
2017-08-17T03:52:36.797Z,17.60
2017-08-17T03:55:05.188Z,17.60
2017-08-17T03:57:33.550Z,17.60
2017-08-17T04:00:02.081Z,17.60
2017-08-17T04:02:30.448Z,17.50
2017-08-17T04:04:58.807Z,17.50
2017-08-17T04:07:27.164Z,17.50
2017-08-17T04:09:56.218Z,17.50
2017-08-17T04:12:24.584Z,17.40
2017-08-17T04:14:52.951Z,17.40
2017-08-17T04:17:21.329Z,17.40
2017-08-17T04:19:49.763Z,17.40
2017-08-17T04:22:18.135Z,17.40
2017-08-17T04:24:46.495Z,17.40
2017-08-17T04:27:15.613Z,17.60
2017-08-17T04:29:44.737Z,17.60
2017-08-17T04:32:13.094Z,17.60
2017-08-17T04:34:41.492Z,17.60
2017-08-17T04:37:09.871Z,17.60
2017-08-17T04:39:38.223Z,17.70
2017-08-17T04:42:06.576Z,17.60
2017-08-17T04:44:34.929Z,17.60
2017-08-17T04:47:03.290Z,17.70
2017-08-17T04:49:31.701Z,17.70
2017-08-17T04:52:00.270Z,17.70
2017-08-17T04:54:28.623Z,17.70
2017-08-17T04:57:13.672Z,17.80
2017-08-17T04:59:42.046Z,17.80
2017-08-17T05:02:10.064Z,18.00
2017-08-17T05:04:38.422Z,18.20
2017-08-17T05:07:06.783Z,18.20
2017-08-17T05:09:35.138Z,18.30
2017-08-17T05:12:03.616Z,18.40
2017-08-17T05:14:31.992Z,18.40
2017-08-17T05:17:00.575Z,18.40
2017-08-17T05:19:28.919Z,18.50
2017-08-17T05:21:57.295Z,18.50
2017-08-17T05:24:26.623Z,18.70
2017-08-17T05:26:54.997Z,18.70
2017-08-17T05:29:23.350Z,18.80
2017-08-17T05:31:51.719Z,18.80
2017-08-17T05:34:20.227Z,18.80
2017-08-17T05:36:48.602Z,18.90
2017-08-17T05:39:16.979Z,18.90
2017-08-17T05:41:45.334Z,19.00
2017-08-17T05:44:13.789Z,19.00
2017-08-17T05:46:42.208Z,19.10
2017-08-17T05:49:10.571Z,19.10
2017-08-17T05:51:42.204Z,19.20
2017-08-17T05:54:11.344Z,19.30
2017-08-17T05:56:39.706Z,19.30
2017-08-17T05:59:08.292Z,19.40
2017-08-17T06:01:36.663Z,19.40
2017-08-17T06:04:05.139Z,19.50
2017-08-17T06:06:33.514Z,19.50
2017-08-17T06:09:01.866Z,19.50
2017-08-17T06:11:30.221Z,19.50
2017-08-17T06:13:58.849Z,19.60
2017-08-17T06:16:26.879Z,19.60
2017-08-17T06:18:55.922Z,19.70
2017-08-17T06:21:24.434Z,19.80
2017-08-17T06:23:52.785Z,20.00
2017-08-17T06:26:21.151Z,20.10
2017-08-17T06:28:49.528Z,20.20
2017-08-17T06:31:17.878Z,20.20
2017-08-17T06:33:46.345Z,20.30
2017-08-17T06:36:14.706Z,20.30
2017-08-17T06:38:43.221Z,20.40
2017-08-17T06:41:11.579Z,20.40
2017-08-17T06:43:39.951Z,20.30
2017-08-17T06:46:08.347Z,20.30
2017-08-17T06:48:36.714Z,20.20
2017-08-17T06:51:05.818Z,20.20
2017-08-17T06:53:34.162Z,20.20
2017-08-17T06:56:02.568Z,20.20
2017-08-17T06:58:31.047Z,20.30
2017-08-17T07:00:59.425Z,20.40
2017-08-17T07:03:27.816Z,20.40
2017-08-17T07:05:56.323Z,20.40
2017-08-17T07:08:24.975Z,20.40
2017-08-17T07:10:53.347Z,20.40
2017-08-17T07:13:21.812Z,20.40
2017-08-17T07:15:50.194Z,20.50
2017-08-17T07:18:18.555Z,20.70
2017-08-17T07:20:46.950Z,20.80
2017-08-17T07:23:15.319Z,20.90
2017-08-17T07:25:43.699Z,21.00
2017-08-17T07:28:12.045Z,21.10
2017-08-17T07:30:40.431Z,21.20
2017-08-17T07:33:08.788Z,21.30
2017-08-17T07:35:37.914Z,21.50
2017-08-17T07:38:06.279Z,21.50
2017-08-17T07:40:34.866Z,21.60
2017-08-17T07:43:03.242Z,21.70
2017-08-17T07:45:31.586Z,21.80
2017-08-17T07:48:00.916Z,21.90
2017-08-17T07:50:29.347Z,21.90
2017-08-17T07:52:57.916Z,22.00
2017-08-17T07:55:26.261Z,22.20
2017-08-17T07:57:54.737Z,22.30
2017-08-17T08:00:23.756Z,22.40
2017-08-17T08:02:51.770Z,22.40
2017-08-17T08:05:20.132Z,22.40
2017-08-17T08:07:49.259Z,22.30
2017-08-17T08:10:17.614Z,22.20
2017-08-17T08:12:45.968Z,22.30
2017-08-17T08:15:14.347Z,22.30
2017-08-17T08:17:42.962Z,22.40
2017-08-17T08:20:11.307Z,22.40
2017-08-17T08:22:39.714Z,22.40
2017-08-17T08:25:08.066Z,22.50
2017-08-17T08:27:36.437Z,22.60
2017-08-17T08:30:04.810Z,22.60
2017-08-17T08:32:33.161Z,22.60
2017-08-17T08:35:01.530Z,22.60
2017-08-17T08:37:29.885Z,22.60
2017-08-17T08:39:58.247Z,22.70
2017-08-17T08:42:26.822Z,22.70
2017-08-17T08:44:55.199Z,22.80
2017-08-17T08:47:23.576Z,22.80
2017-08-17T08:49:51.927Z,22.90
2017-08-17T08:52:20.709Z,23.00
2017-08-17T08:54:49.824Z,23.00
2017-08-17T08:57:18.169Z,23.00
2017-08-17T08:59:46.576Z,23.20
2017-08-17T09:02:14.929Z,23.20
2017-08-17T09:04:43.328Z,23.30
2017-08-17T09:07:11.679Z,23.30
2017-08-17T09:09:40.714Z,23.40
2017-08-17T09:12:09.276Z,23.50
2017-08-17T09:14:37.625Z,23.50
2017-08-17T09:17:06.951Z,23.60
2017-08-17T09:19:35.327Z,23.60
2017-08-17T09:22:03.683Z,23.70
2017-08-17T09:24:32.039Z,23.70
2017-08-17T09:27:01.374Z,23.70
2017-08-17T09:29:29.712Z,23.60
2017-08-17T09:31:59.047Z,23.80
2017-08-17T09:34:27.390Z,23.80
2017-08-17T09:36:56.522Z,23.90
2017-08-17T09:39:25.009Z,23.90
2017-08-17T09:41:53.472Z,24.10
2017-08-17T09:44:21.847Z,24.20
2017-08-17T09:46:50.205Z,24.30
2017-08-17T09:49:18.562Z,24.50
2017-08-17T09:51:47.700Z,24.70
2017-08-17T09:54:16.048Z,24.70
2017-08-17T09:56:44.402Z,24.80
2017-08-17T09:59:12.787Z,24.90
2017-08-17T10:01:41.146Z,25.00
2017-08-17T10:04:09.775Z,25.10
2017-08-17T10:06:38.115Z,25.20
2017-08-17T10:09:07.237Z,25.40
2017-08-17T10:11:35.611Z,25.40
2017-08-17T10:14:03.959Z,25.40
2017-08-17T10:16:32.375Z,25.40
2017-08-17T10:19:00.724Z,25.40
2017-08-17T10:21:29.084Z,25.60
2017-08-17T10:23:57.453Z,25.60
2017-08-17T10:26:25.803Z,25.70
2017-08-17T10:28:54.167Z,25.70
2017-08-17T10:31:22.677Z,25.50
2017-08-17T10:33:51.206Z,25.50
2017-08-17T10:36:19.550Z,25.50
2017-08-17T10:38:48.880Z,25.50
2017-08-17T10:41:17.239Z,25.50
2017-08-17T10:43:45.647Z,25.50
2017-08-17T10:46:14.001Z,25.50
2017-08-17T10:48:42.439Z,25.50
2017-08-17T10:51:10.802Z,25.50
2017-08-17T10:53:39.176Z,25.70
2017-08-17T10:56:07.539Z,25.70
2017-08-17T10:58:35.895Z,25.70
2017-08-17T11:01:04.471Z,25.70
2017-08-17T11:03:32.842Z,25.60
2017-08-17T11:06:01.196Z,25.60
2017-08-17T11:08:29.545Z,25.60
2017-08-17T11:10:57.910Z,25.50
2017-08-17T11:13:26.270Z,25.50
2017-08-17T11:15:54.646Z,25.40
2017-08-17T11:18:23.004Z,25.30
2017-08-17T11:20:51.614Z,25.30
2017-08-17T11:23:19.973Z,25.20
2017-08-17T11:25:48.350Z,25.30
2017-08-17T11:28:16.719Z,25.30
2017-08-17T11:30:45.096Z,25.40
2017-08-17T11:33:13.477Z,25.60
2017-08-17T11:35:41.834Z,25.70
2017-08-17T11:38:10.312Z,25.90
2017-08-17T11:40:38.660Z,25.80
2017-08-17T11:43:07.558Z,25.70
2017-08-17T11:45:35.899Z,25.80
2017-08-17T11:48:05.018Z,26.10
2017-08-17T11:50:33.191Z,26.00
2017-08-17T11:53:01.554Z,26.20
2017-08-17T11:55:29.757Z,26.20
2017-08-17T11:57:58.107Z,26.20
2017-08-17T12:00:26.458Z,26.10
2017-08-17T12:02:54.825Z,26.10
2017-08-17T12:05:23.188Z,26.10
2017-08-17T12:07:51.542Z,26.10
2017-08-17T12:10:19.909Z,25.90
2017-08-17T12:12:48.283Z,25.50
2017-08-17T12:15:16.642Z,25.10
2017-08-17T12:17:44.994Z,24.80
2017-08-17T12:20:14.115Z,24.10
2017-08-17T12:22:42.464Z,24.10
2017-08-17T12:25:11.022Z,23.80
2017-08-17T12:27:40.075Z,23.50
2017-08-17T12:30:08.598Z,23.40
2017-08-17T12:32:36.948Z,23.30
2017-08-17T12:35:05.115Z,23.30
2017-08-17T12:37:33.483Z,23.30
2017-08-17T12:40:01.954Z,23.20
2017-08-17T12:42:30.311Z,23.10
2017-08-17T12:44:58.681Z,23.10
2017-08-17T12:47:27.039Z,23.00
2017-08-17T12:49:56.175Z,22.70
2017-08-17T12:52:24.513Z,22.70
2017-08-17T12:54:53.131Z,22.60
2017-08-17T12:57:21.559Z,22.60
2017-08-17T12:59:50.498Z,22.40
2017-08-17T13:02:18.973Z,22.40
2017-08-17T13:04:47.350Z,22.30
2017-08-17T13:07:15.726Z,22.30
2017-08-17T13:09:44.087Z,22.30
2017-08-17T13:12:12.475Z,22.30
2017-08-17T13:14:40.857Z,22.40
2017-08-17T13:17:09.206Z,22.40
2017-08-17T13:19:37.557Z,22.50
2017-08-17T13:22:05.948Z,22.50
2017-08-17T13:24:34.355Z,22.60
2017-08-17T13:27:02.703Z,22.60
2017-08-17T13:29:31.749Z,22.70
2017-08-17T13:32:00.308Z,22.70
2017-08-17T13:34:28.989Z,22.60
2017-08-17T13:36:57.338Z,22.60
2017-08-17T13:39:25.703Z,22.50
2017-08-17T13:41:54.835Z,22.40
2017-08-17T13:44:23.198Z,22.40
2017-08-17T13:46:52.503Z,22.50
2017-08-17T13:49:20.926Z,22.60
2017-08-17T13:51:49.300Z,22.70
2017-08-17T13:54:17.662Z,22.80
2017-08-17T13:56:46.032Z,22.80
2017-08-17T13:59:14.389Z,22.80
2017-08-17T14:01:42.751Z,22.70
2017-08-17T14:04:11.110Z,22.70
2017-08-17T14:06:39.571Z,22.70
2017-08-17T14:09:07.932Z,22.80
2017-08-17T14:11:39.128Z,22.80
2017-08-17T14:14:07.472Z,22.80
2017-08-17T14:16:36.619Z,23.10
2017-08-17T14:19:05.176Z,23.10
2017-08-17T14:21:33.622Z,23.10
2017-08-17T14:24:01.984Z,23.00
2017-08-17T14:26:30.325Z,23.10
2017-08-17T14:28:58.998Z,23.20
2017-08-17T14:31:27.341Z,23.20
2017-08-17T14:33:55.739Z,23.00
2017-08-17T14:36:24.099Z,23.00
2017-08-17T14:38:52.489Z,23.00
2017-08-17T14:41:20.829Z,23.20
2017-08-17T14:43:50.162Z,23.90
2017-08-17T14:46:18.601Z,23.90
2017-08-17T14:48:46.966Z,24.10
2017-08-17T14:51:15.398Z,24.20
2017-08-17T14:53:43.773Z,24.40
2017-08-17T14:56:12.139Z,24.50
2017-08-17T14:58:40.505Z,24.30
2017-08-17T15:01:08.867Z,23.90
2017-08-17T15:03:37.996Z,23.30
2017-08-17T15:06:06.344Z,23.30
2017-08-17T15:08:34.618Z,23.20
2017-08-17T15:11:03.729Z,23.10
2017-08-17T15:13:32.081Z,23.10
2017-08-17T15:16:00.433Z,23.00
2017-08-17T15:18:28.811Z,22.90
2017-08-17T15:20:57.178Z,22.80
2017-08-17T15:23:25.818Z,22.70
2017-08-17T15:25:54.247Z,22.70
2017-08-17T15:28:22.635Z,22.70
2017-08-17T15:30:50.989Z,22.60
2017-08-17T15:33:19.356Z,22.50
2017-08-17T15:35:47.706Z,22.50
2017-08-17T15:38:16.138Z,22.40
2017-08-17T15:40:44.493Z,22.40
2017-08-17T15:43:12.846Z,22.30
2017-08-17T15:45:41.422Z,22.30
2017-08-17T15:48:09.776Z,22.20
2017-08-17T15:50:38.258Z,22.20
2017-08-17T15:53:06.899Z,22.10
2017-08-17T15:55:35.941Z,22.10
2017-08-17T15:58:04.500Z,22.20
2017-08-17T16:00:32.858Z,22.20
2017-08-17T16:03:01.207Z,22.20
2017-08-17T16:05:29.596Z,22.30
2017-08-17T16:07:58.010Z,22.30
2017-08-17T16:10:26.349Z,22.40
2017-08-17T16:12:54.727Z,22.30
2017-08-17T16:15:23.114Z,22.30
2017-08-17T16:17:51.474Z,22.30
2017-08-17T16:20:19.843Z,22.30
2017-08-17T16:22:48.374Z,22.20
2017-08-17T16:25:16.819Z,22.10
2017-08-17T16:27:45.428Z,22.10
2017-08-17T16:30:13.798Z,22.00
2017-08-17T16:32:42.161Z,21.90
2017-08-17T16:35:10.556Z,22.00
2017-08-17T16:37:38.900Z,22.00
2017-08-17T16:40:08.188Z,22.10
2017-08-17T16:42:36.607Z,22.00
2017-08-17T16:45:05.084Z,22.00
2017-08-17T16:47:33.457Z,22.00
2017-08-17T16:50:01.833Z,22.00
2017-08-17T16:52:30.863Z,22.00
2017-08-17T16:54:59.222Z,22.10
2017-08-17T16:57:27.590Z,22.10
2017-08-17T16:59:55.979Z,22.10
2017-08-17T17:02:26.190Z,22.10
2017-08-17T17:04:54.566Z,22.00
2017-08-17T17:07:22.910Z,22.00
2017-08-17T17:09:51.297Z,21.90
2017-08-17T17:12:19.878Z,21.90
2017-08-17T17:14:48.232Z,22.00
2017-08-17T17:17:17.354Z,21.80
2017-08-17T17:19:45.927Z,21.80
2017-08-17T17:22:14.955Z,21.80
2017-08-17T17:24:43.315Z,21.70
2017-08-17T17:27:11.670Z,21.70
2017-08-17T17:29:40.111Z,21.80
2017-08-17T17:32:09.237Z,21.80
2017-08-17T17:34:37.591Z,21.80
2017-08-17T17:37:05.957Z,21.80
2017-08-17T17:39:34.330Z,21.80
2017-08-17T17:42:02.732Z,21.80
2017-08-17T17:44:31.120Z,21.80
2017-08-17T17:46:59.475Z,21.80
2017-08-17T17:49:27.827Z,21.80
2017-08-17T17:51:56.192Z,21.80
2017-08-17T17:54:24.550Z,21.80
2017-08-17T17:56:52.928Z,21.80
2017-08-17T17:59:21.287Z,21.80
2017-08-17T18:01:49.640Z,21.80
2017-08-17T18:04:18.229Z,21.80
2017-08-17T18:06:46.751Z,21.80
2017-08-17T18:09:15.295Z,21.80
2017-08-17T18:11:43.661Z,21.70
2017-08-17T18:14:12.344Z,21.70
2017-08-17T18:16:40.721Z,21.60
2017-08-17T18:19:09.066Z,21.50
2017-08-17T18:21:38.230Z,21.50
2017-08-17T18:24:06.619Z,21.50
2017-08-17T18:26:34.977Z,21.40
2017-08-17T18:29:03.830Z,21.40
2017-08-17T18:31:32.192Z,21.30
2017-08-17T18:34:00.804Z,21.30
2017-08-17T18:36:29.262Z,21.10
2017-08-17T18:38:57.637Z,21.00
2017-08-17T18:41:26.004Z,21.00
2017-08-17T18:43:54.391Z,20.80
2017-08-17T18:46:22.748Z,20.70
2017-08-17T18:48:51.244Z,20.70
2017-08-17T18:51:19.599Z,20.60
2017-08-17T18:53:47.967Z,20.50
2017-08-17T18:56:16.329Z,20.50
2017-08-17T18:58:44.953Z,20.50
2017-08-17T19:01:13.314Z,20.50
2017-08-17T19:03:41.782Z,20.50
2017-08-17T19:06:10.237Z,20.50
2017-08-17T19:08:38.595Z,20.50
2017-08-17T19:11:07.752Z,20.50
2017-08-17T19:13:36.114Z,20.50
2017-08-17T19:16:04.481Z,20.50
2017-08-17T19:18:32.843Z,20.50
2017-08-17T19:21:01.954Z,20.50
2017-08-17T19:23:30.347Z,20.50
2017-08-17T19:25:58.723Z,20.50
2017-08-17T19:28:27.068Z,20.50
2017-08-17T19:30:55.426Z,20.50
2017-08-17T19:33:23.798Z,20.50
2017-08-17T19:35:52.179Z,20.50
2017-08-17T19:38:20.535Z,20.50
2017-08-17T19:40:48.895Z,20.50
2017-08-17T19:43:17.401Z,20.50
2017-08-17T19:45:45.935Z,20.50
2017-08-17T19:48:14.310Z,20.50
2017-08-17T19:50:42.995Z,20.50
2017-08-17T19:53:11.470Z,20.50
2017-08-17T19:55:39.901Z,20.50
2017-08-17T19:58:08.273Z,20.50
